createdAt,value
2022-09-17T00:02:22.656Z,25.52
2022-09-17T00:07:25.293Z,25.42
2022-09-17T00:12:27.990Z,25.40
2022-09-17T00:17:31.963Z,25.36
2022-09-17T00:22:34.613Z,25.28
2022-09-17T00:27:37.283Z,25.21
2022-09-17T00:32:41.342Z,25.13
2022-09-17T00:37:43.969Z,25.08
2022-09-17T00:42:46.615Z,25.06
2022-09-17T00:47:56.927Z,25.03
2022-09-17T00:53:03.154Z,24.98
2022-09-17T00:58:09.216Z,24.92
2022-09-17T01:03:13.263Z,24.85
2022-09-17T01:08:26.982Z,24.76
2022-09-17T01:13:38.523Z,24.69
2022-09-17T01:18:59.173Z,24.63
2022-09-17T01:24:34.246Z,24.58
2022-09-17T01:29:56.559Z,24.52
2022-09-17T01:35:06.374Z,24.47
2022-09-17T01:40:13.979Z,24.43
2022-09-17T01:45:24.716Z,24.40
2022-09-17T01:50:34.623Z,24.38
2022-09-17T01:55:41.494Z,24.34
2022-09-17T02:00:51.431Z,24.31
2022-09-17T02:06:01.108Z,24.27
2022-09-17T02:11:09.110Z,24.22
2022-09-17T02:16:18.837Z,24.19
2022-09-17T02:21:31.322Z,24.14
2022-09-17T02:26:38.468Z,24.09
2022-09-17T02:31:42.392Z,24.06
2022-09-17T02:36:46.810Z,24.02
2022-09-17T02:42:04.881Z,23.98
2022-09-17T02:47:57.914Z,23.95
2022-09-17T02:53:12.647Z,23.92
2022-09-17T02:58:25.521Z,23.88
2022-09-17T03:03:35.489Z,23.85
2022-09-17T03:08:42.965Z,23.81
2022-09-17T03:13:45.750Z,23.78
2022-09-17T03:18:48.424Z,23.76
2022-09-17T03:23:52.909Z,23.73
2022-09-17T03:28:55.810Z,23.70
2022-09-17T03:33:58.783Z,23.67
2022-09-17T03:39:02.806Z,23.65
2022-09-17T03:44:05.495Z,23.62
2022-09-17T03:49:09.009Z,23.59
2022-09-17T03:54:13.069Z,23.57
2022-09-17T03:59:16.164Z,23.55
2022-09-17T04:04:18.797Z,23.53
2022-09-17T04:09:22.797Z,23.50
2022-09-17T04:14:25.492Z,23.48
2022-09-17T04:19:28.414Z,23.46
2022-09-17T04:24:32.448Z,23.43
2022-09-17T04:29:35.105Z,23.41
2022-09-17T04:34:37.823Z,23.38
2022-09-17T04:39:41.783Z,23.36
2022-09-17T04:44:44.696Z,23.34
2022-09-17T04:49:47.467Z,23.33
2022-09-17T04:54:51.497Z,23.28
2022-09-17T04:59:54.261Z,23.28
2022-09-17T05:04:57.036Z,23.25
2022-09-17T05:10:00.997Z,23.22
2022-09-17T05:15:04.650Z,23.20
2022-09-17T05:20:08.561Z,23.18
2022-09-17T05:25:13.002Z,23.17
2022-09-17T05:30:15.812Z,23.15
2022-09-17T05:35:18.537Z,23.12
2022-09-17T05:40:22.619Z,23.10
2022-09-17T05:45:25.514Z,23.08
2022-09-17T05:50:29.955Z,23.06
2022-09-17T05:55:35.094Z,23.04
2022-09-17T06:00:37.915Z,23.03
2022-09-17T06:05:41.117Z,23.02
2022-09-17T06:10:45.260Z,23.01
2022-09-17T06:15:51.158Z,23.01
2022-09-17T06:20:55.280Z,23.00
2022-09-17T06:26:00.581Z,22.99
2022-09-17T06:31:05.127Z,23.01
2022-09-17T06:36:13.611Z,22.99
2022-09-17T06:41:18.364Z,22.98
2022-09-17T06:46:21.036Z,22.96
2022-09-17T06:51:23.753Z,22.98
2022-09-17T06:56:28.091Z,22.98
2022-09-17T07:01:31.124Z,22.99
2022-09-17T07:06:34.086Z,22.99
2022-09-17T07:11:38.091Z,23.02
2022-09-17T07:16:40.776Z,23.04
2022-09-17T07:21:43.558Z,23.06
2022-09-17T07:26:47.577Z,23.07
2022-09-17T07:31:50.358Z,23.02
2022-09-17T07:36:53.033Z,22.96
2022-09-17T07:41:57.058Z,22.22
2022-09-17T07:46:59.713Z,21.99
2022-09-17T07:52:06.192Z,22.46
2022-09-17T07:57:10.238Z,22.62
2022-09-17T08:02:14.348Z,22.67
2022-09-17T08:07:17.083Z,22.71
2022-09-17T08:12:22.797Z,22.75
2022-09-17T08:17:25.422Z,22.82
2022-09-17T08:22:28.111Z,22.83
2022-09-17T08:27:32.739Z,22.83
2022-09-17T08:32:35.364Z,22.84
2022-09-17T08:37:37.995Z,22.84
2022-09-17T08:42:54.123Z,22.85
2022-09-17T08:48:05.032Z,22.84
2022-09-17T08:53:21.208Z,22.84
2022-09-17T08:58:42.676Z,22.85
2022-09-17T09:04:02.137Z,22.84
2022-09-17T09:09:11.797Z,22.84
2022-09-17T09:14:24.055Z,22.85
2022-09-17T09:19:29.614Z,22.86
2022-09-17T09:24:42.178Z,22.87
2022-09-17T09:30:03.335Z,22.88
2022-09-17T09:35:18.497Z,22.89
2022-09-17T09:40:31.728Z,22.92
2022-09-17T09:45:48.434Z,22.92
2022-09-17T09:51:06.896Z,22.93
2022-09-17T09:56:32.396Z,22.94
2022-09-17T10:01:41.686Z,22.93
2022-09-17T10:06:44.542Z,22.96
2022-09-17T10:12:01.394Z,22.96
2022-09-17T10:17:17.707Z,22.99
2022-09-17T10:22:26.526Z,23.01
2022-09-17T10:27:31.331Z,23.01
2022-09-17T10:32:35.431Z,23.04
2022-09-17T10:37:45.393Z,23.02
2022-09-17T10:42:49.110Z,23.06
2022-09-17T10:47:54.040Z,22.99
2022-09-17T10:52:59.862Z,23.00
2022-09-17T10:58:16.582Z,23.04
2022-09-17T11:03:48.656Z,23.03
2022-09-17T11:09:03.150Z,23.04
2022-09-17T11:14:19.732Z,23.09
2022-09-17T11:19:33.737Z,23.11
2022-09-17T11:24:51.413Z,23.18
2022-09-17T11:30:06.294Z,23.26
2022-09-17T11:35:15.734Z,23.31
2022-09-17T11:40:25.213Z,23.30
2022-09-17T11:45:33.819Z,23.23
2022-09-17T11:50:43.844Z,23.16
2022-09-17T11:56:18.546Z,23.15
2022-09-17T12:01:30.717Z,23.17
2022-09-17T12:06:41.081Z,23.23
2022-09-17T12:11:49.430Z,23.31
2022-09-17T12:16:58.979Z,23.43
2022-09-17T12:22:10.804Z,23.47
2022-09-17T12:27:23.685Z,23.52
2022-09-17T12:32:56.717Z,23.59
2022-09-17T12:38:16.379Z,23.57
2022-09-17T12:43:43.705Z,23.65
2022-09-17T12:49:14.970Z,23.70
2022-09-17T12:54:31.790Z,23.69
2022-09-17T12:59:50.568Z,23.69
2022-09-17T13:05:25.335Z,23.72
2022-09-17T13:10:45.759Z,23.71
2022-09-17T13:15:55.306Z,23.82
2022-09-17T13:21:08.074Z,23.96
2022-09-17T13:26:17.209Z,24.10
2022-09-17T13:31:44.573Z,24.19
2022-09-17T13:36:50.278Z,24.29
2022-09-17T13:42:02.910Z,24.36
2022-09-17T13:47:16.920Z,24.43
2022-09-17T13:52:38.306Z,24.58
2022-09-17T13:57:52.456Z,24.62
2022-09-17T14:02:55.089Z,24.62
2022-09-17T14:08:29.200Z,24.62
2022-09-17T14:13:44.917Z,24.60
2022-09-17T14:18:59.800Z,24.60
2022-09-17T14:24:05.939Z,24.53
2022-09-17T14:29:21.570Z,24.57
2022-09-17T14:34:27.211Z,24.56
2022-09-17T14:39:38.262Z,24.60
2022-09-17T14:44:50.841Z,24.63
2022-09-17T14:49:54.214Z,24.65
2022-09-17T14:55:17.624Z,24.64
2022-09-17T15:00:25.088Z,24.66
2022-09-17T15:05:31.859Z,24.67
2022-09-17T15:10:37.531Z,24.66
2022-09-17T15:15:50.569Z,24.69
2022-09-17T15:20:57.080Z,24.73
2022-09-17T15:26:02.433Z,24.71
2022-09-17T15:31:11.132Z,24.74
2022-09-17T15:36:21.433Z,24.76
2022-09-17T15:41:32.085Z,24.78
2022-09-17T15:46:36.187Z,24.69
2022-09-17T15:51:39.169Z,24.70
2022-09-17T15:56:43.383Z,24.63
2022-09-17T16:01:57.562Z,24.53
2022-09-17T16:07:27.903Z,24.56
2022-09-17T16:12:30.528Z,24.46
2022-09-17T16:17:45.918Z,24.43
2022-09-17T16:22:49.470Z,24.40
2022-09-17T16:27:54.859Z,24.35
2022-09-17T16:33:00.018Z,23.66
2022-09-17T16:38:02.869Z,23.46
2022-09-17T16:43:05.658Z,23.78
2022-09-17T16:48:09.788Z,23.83
2022-09-17T16:53:12.504Z,23.86
2022-09-17T16:58:15.210Z,23.83
2022-09-17T17:03:19.389Z,23.87
2022-09-17T17:08:22.747Z,23.80
2022-09-17T17:13:25.549Z,23.74
2022-09-17T17:18:29.581Z,23.70
2022-09-17T17:23:32.247Z,23.68
2022-09-17T17:28:36.407Z,23.64
2022-09-17T17:33:40.387Z,23.61
2022-09-17T17:38:43.013Z,23.59
2022-09-17T17:43:45.666Z,23.59
2022-09-17T17:48:50.095Z,23.62
2022-09-17T17:53:52.711Z,23.67
2022-09-17T17:58:57.603Z,23.78
2022-09-17T18:04:03.243Z,23.87
2022-09-17T18:09:06.923Z,23.91
2022-09-17T18:14:13.051Z,23.98
2022-09-17T18:19:17.105Z,24.04
2022-09-17T18:24:20.167Z,24.10
2022-09-17T18:29:22.793Z,24.17
2022-09-17T18:34:27.221Z,24.21
2022-09-17T18:39:57.845Z,24.26
2022-09-17T18:44:52.615Z,24.31
2022-09-17T18:49:56.698Z,24.34
2022-09-17T18:55:01.433Z,24.37
2022-09-17T19:00:07.393Z,24.41
2022-09-17T19:05:11.755Z,24.43
2022-09-17T19:10:15.260Z,24.46
2022-09-17T19:15:18.587Z,24.47
2022-09-17T19:20:23.514Z,24.51
2022-09-17T19:25:28.017Z,24.53
2022-09-17T19:30:31.277Z,24.56
2022-09-17T19:35:35.308Z,24.58
2022-09-17T19:40:38.030Z,24.59
2022-09-17T19:45:40.716Z,24.66
2022-09-17T19:50:52.645Z,24.66
2022-09-17T19:55:55.649Z,24.65
2022-09-17T20:00:59.170Z,24.72
2022-09-17T20:06:04.909Z,24.75
2022-09-17T20:11:09.316Z,24.78
2022-09-17T20:16:14.317Z,24.79
2022-09-17T20:21:20.403Z,24.82
2022-09-17T20:26:23.775Z,24.82
2022-09-17T20:31:28.958Z,24.83
2022-09-17T20:36:35.977Z,24.89
2022-09-17T20:41:39.501Z,24.86
2022-09-17T20:46:42.221Z,24.91
2022-09-17T20:51:46.465Z,24.93
2022-09-17T20:56:49.163Z,24.94
2022-09-17T21:01:53.540Z,24.96
2022-09-17T21:06:57.621Z,25.00
2022-09-17T21:12:00.357Z,24.94
2022-09-17T21:17:03.400Z,24.94
2022-09-17T21:22:07.433Z,24.98
2022-09-17T21:27:10.142Z,25.02
2022-09-17T21:32:12.763Z,25.03
2022-09-17T21:37:16.957Z,25.04
2022-09-17T21:42:19.647Z,25.05
2022-09-17T21:47:22.514Z,25.08
2022-09-17T21:52:26.489Z,25.03
2022-09-17T21:57:29.412Z,25.09
2022-09-17T22:02:32.677Z,25.08
2022-09-17T22:07:36.650Z,25.06
2022-09-17T22:12:42.318Z,25.06
2022-09-17T22:17:46.094Z,25.12
2022-09-17T22:22:50.168Z,25.16
2022-09-17T22:28:16.998Z,25.15
2022-09-17T22:33:15.374Z,25.15
2022-09-17T22:38:19.383Z,25.17
2022-09-17T22:43:21.985Z,25.18
2022-09-17T22:48:24.804Z,25.19
2022-09-17T22:53:28.830Z,25.20
2022-09-17T22:58:31.989Z,25.23
2022-09-17T23:03:34.690Z,25.24
2022-09-17T23:08:38.802Z,25.26
2022-09-17T23:13:41.674Z,25.26
2022-09-17T23:18:44.799Z,25.27
2022-09-17T23:23:50.865Z,25.26
2022-09-17T23:28:54.667Z,25.29
2022-09-17T23:33:57.951Z,25.27
2022-09-17T23:39:03.233Z,25.28
2022-09-17T23:44:13.828Z,25.31
2022-09-17T23:49:17.893Z,25.30
2022-09-17T23:54:21.894Z,25.30
2022-09-17T23:59:24.771Z,25.31
